Time;durP1;ratioP1;P1;durP2;ratioP2;P2;SDS_P1;SDS_P2;PMS_P1;PMS_P2;Temp;Humidity;BMP_temperature;BMP_pressure;BME280_temperature;BME280_humidity;BME280_pressure;Samples;Min_cycle;Max_cycle;Signal;HPM_P1;HPM_P2
2021/05/30 00:01:27;;;;;;;34.70;15.95;;;;;;;10.11;100.00;102731.94;5247533;28;20402;-85
2021/05/30 00:03:58;;;;;;;33.30;17.27;;;;;;;10.14;100.00;102730.84;5248827;28;20110;-84
2021/05/30 00:06:29;;;;;;;38.50;17.20;;;;;;;10.16;100.00;102728.91;5248791;28;20560;-85
2021/05/30 00:09:00;;;;;;;37.97;17.92;;;;;;;10.20;100.00;102725.03;5248726;28;20542;-85
2021/05/30 00:11:34;;;;;;;39.33;17.48;;;;;;;10.19;100.00;102723.31;5235570;28;20032;-84
2021/05/30 00:14:05;;;;;;;40.97;18.73;;;;;;;10.17;100.00;102729.75;5249255;28;20047;-85
2021/05/30 00:16:35;;;;;;;39.33;18.27;;;;;;;10.19;100.00;102733.16;5247619;28;20032;-84
2021/05/30 00:19:06;;;;;;;40.35;18.05;;;;;;;10.14;100.00;102725.50;5234848;28;20017;-84
2021/05/30 00:21:37;;;;;;;37.92;18.63;;;;;;;10.14;100.00;102725.50;5248504;28;20111;-84
2021/05/30 00:24:08;;;;;;;44.25;19.63;;;;;;;10.08;100.00;102720.56;5248428;28;20070;-84
2021/05/30 00:26:39;;;;;;;41.92;19.60;;;;;;;10.01;100.00;102719.34;5249161;28;20036;-85
2021/05/30 00:29:09;;;;;;;42.13;18.63;;;;;;;9.97;100.00;102726.75;5247768;28;20024;-84
2021/05/30 00:31:40;;;;;;;44.38;19.27;;;;;;;9.99;100.00;102721.28;5247066;28;20020;-84
2021/05/30 00:34:10;;;;;;;45.33;20.17;;;;;;;9.98;100.00;102724.94;5247931;28;20012;-85
2021/05/30 00:36:41;;;;;;;41.95;20.83;;;;;;;9.94;100.00;102727.00;5246463;28;20032;-85
2021/05/30 00:39:11;;;;;;;39.08;19.27;;;;;;;9.99;100.00;102727.53;5242130;28;20021;-85
2021/05/30 00:41:42;;;;;;;39.58;18.70;;;;;;;10.04;100.00;102732.50;5239923;28;20554;-84
2021/05/30 00:44:23;;;;;;;48.05;19.70;;;;;;;10.04;100.00;102725.34;5247379;28;20024;-85
2021/05/30 00:46:54;;;;;;;41.38;20.05;;;;;;;10.07;100.00;102724.22;5248164;28;20032;-85
2021/05/30 00:49:26;;;;;;;45.00;20.55;;;;;;;9.98;100.00;102725.78;5248445;28;20380;-85
2021/05/30 00:51:57;;;;;;;43.70;21.13;;;;;;;9.99;100.00;102723.94;5247499;28;20036;-84
2021/05/30 00:54:29;;;;;;;42.30;19.98;;;;;;;10.02;100.00;102724.59;5248148;28;20023;-85
2021/05/30 00:56:59;;;;;;;40.20;19.77;;;;;;;10.04;100.00;102711.06;5247292;28;20031;-85
2021/05/30 00:59:30;;;;;;;45.25;20.35;;;;;;;9.94;100.00;102727.00;5247228;28;20028;-85
2021/05/30 01:02:01;;;;;;;43.40;19.90;;;;;;;10.02;100.00;102721.91;5247007;28;20024;-84
2021/05/30 01:04:32;;;;;;;45.83;19.83;;;;;;;9.94;100.00;102729.69;5233735;28;20433;-85
2021/05/30 01:07:03;;;;;;;41.58;20.75;;;;;;;9.98;100.00;102738.34;5247222;28;20115;-85
2021/05/30 01:09:33;;;;;;;43.22;20.75;;;;;;;9.97;100.00;102728.59;5246311;28;20480;-85
2021/05/30 01:12:09;;;;;;;49.35;21.90;;;;;;;9.96;100.00;102729.56;5246941;28;20024;-85
2021/05/30 01:14:42;;;;;;;47.13;20.35;;;;;;;9.93;100.00;102730.63;5246964;28;20028;-85
2021/05/30 01:17:12;;;;;;;47.10;20.08;;;;;;;9.93;100.00;102737.84;5247706;28;20024;-85
2021/05/30 01:20:04;;;;;;;50.05;21.92;;;;;;;9.88;100.00;102732.81;5250262;28;20129;-85
2021/05/30 01:22:36;;;;;;;45.33;20.25;;;;;;;9.86;100.00;102729.41;5250188;28;20054;-85
2021/05/30 01:25:24;;;;;;;39.45;18.63;;;;;;;9.81;100.00;102735.13;5251335;28;20105;-85
2021/05/30 01:27:55;;;;;;;52.10;20.73;;;;;;;9.82;100.00;102730.59;5250405;28;20103;-85
2021/05/30 01:30:39;;;;;;;50.20;20.65;;;;;;;9.79;100.00;102731.72;5250630;28;20062;-85
2021/05/30 01:33:10;;;;;;;46.83;21.23;;;;;;;9.78;100.00;102721.94;5251196;28;20459;-85
2021/05/30 01:35:41;;;;;;;51.95;22.52;;;;;;;9.80;100.00;102733.41;5250547;28;20108;-85
2021/05/30 01:38:12;;;;;;;47.25;20.83;;;;;;;9.79;100.00;102733.53;5250585;28;20024;-84
2021/05/30 01:40:42;;;;;;;49.63;20.55;;;;;;;9.80;100.00;102729.88;5250078;28;20480;-85
2021/05/30 01:43:13;;;;;;;45.60;22.05;;;;;;;9.83;100.00;102737.66;5250400;28;20036;-85
2021/05/30 01:45:44;;;;;;;51.85;20.52;;;;;;;9.82;100.00;102738.66;5250049;28;20024;-85
2021/05/30 01:48:16;;;;;;;47.47;20.90;;;;;;;9.84;100.00;102732.22;5250090;28;20388;-85
2021/05/30 01:50:54;;;;;;;48.45;21.17;;;;;;;9.84;100.00;102734.91;5249847;28;20082;-85
2021/05/30 01:53:34;;;;;;;46.75;20.45;;;;;;;9.78;100.00;102729.97;5250155;28;20551;-85
2021/05/30 01:58:40;;;;;;;51.67;21.75;;;;;;;9.75;100.00;102727.53;5250346;28;20373;-84
2021/05/30 02:01:13;;;;;;;46.20;19.52;;;;;;;9.75;100.00;102724.84;5249672;28;20024;-85
2021/05/30 02:03:45;;;;;;;42.60;20.55;;;;;;;9.70;100.00;102721.66;5250022;28;20048;-84
2021/05/30 02:06:17;;;;;;;54.10;21.63;;;;;;;9.65;100.00;102726.53;5250220;28;20028;-85
2021/05/30 02:08:48;;;;;;;41.08;20.95;;;;;;;9.60;100.00;102731.38;5238429;28;20028;-85
2021/05/30 02:11:19;;;;;;;51.05;22.20;;;;;;;9.63;100.00;102719.53;5248734;28;20094;-85
2021/05/30 02:13:50;;;;;;;50.50;20.75;;;;;;;9.69;100.00;102722.66;5248520;28;20025;-85
2021/05/30 02:16:20;;;;;;;46.55;20.52;;;;;;;9.58;100.00;102718.06;5248809;28;20020;-85
2021/05/30 02:18:51;;;;;;;44.65;20.60;;;;;;;9.51;100.00;102719.50;5249994;28;20028;-85
2021/05/30 02:21:21;;;;;;;49.65;20.20;;;;;;;9.45;100.00;102727.16;5249778;28;20089;-84
2021/05/30 02:23:52;;;;;;;49.08;20.48;;;;;;;9.39;100.00;102717.75;5250051;28;20028;-85
2021/05/30 02:26:22;;;;;;;48.05;20.27;;;;;;;9.31;100.00;102717.44;5249605;28;20028;-85
2021/05/30 02:28:53;;;;;;;43.65;19.25;;;;;;;9.34;100.00;102725.25;5248177;28;20469;-85
2021/05/30 02:31:23;;;;;;;49.95;20.98;;;;;;;9.33;100.00;102724.38;5248508;28;20025;-85
2021/05/30 02:33:54;;;;;;;46.40;20.45;;;;;;;9.31;100.00;102723.66;5249283;28;20103;-85
2021/05/30 02:36:26;;;;;;;45.53;19.98;;;;;;;9.32;100.00;102716.47;5222929;28;20020;-85
2021/05/30 02:38:56;;;;;;;46.42;20.80;;;;;;;9.34;100.00;102722.59;5245202;28;20142;-85
2021/05/30 02:41:27;;;;;;;44.88;20.15;;;;;;;9.35;100.00;102721.59;5250037;28;20117;-85
2021/05/30 02:43:57;;;;;;;45.13;21.02;;;;;;;9.32;100.00;102722.66;5249075;28;20043;-85
2021/05/30 02:46:27;;;;;;;46.22;20.58;;;;;;;9.26;100.00;102716.91;5249166;28;20605;-85
2021/05/30 02:48:58;;;;;;;46.10;20.58;;;;;;;9.23;100.00;102707.28;5247801;28;20047;-85
2021/05/30 02:51:28;;;;;;;51.03;21.02;;;;;;;9.23;100.00;102711.78;5249321;28;20119;-85
2021/05/30 02:54:00;;;;;;;47.35;21.33;;;;;;;9.18;100.00;102708.56;5249148;28;20017;-85
2021/05/30 02:56:30;;;;;;;42.83;19.00;;;;;;;9.11;100.00;102710.84;5249333;28;20013;-85
2021/05/30 02:59:01;;;;;;;44.75;21.05;;;;;;;9.07;100.00;102709.34;5249264;28;20051;-85
2021/05/30 03:01:31;;;;;;;47.92;20.30;;;;;;;9.02;100.00;102717.72;5248705;28;20129;-85
2021/05/30 03:04:02;;;;;;;50.33;21.35;;;;;;;8.99;100.00;102712.59;5250142;28;20084;-85
2021/05/30 03:06:33;;;;;;;46.95;20.92;;;;;;;8.98;100.00;102708.19;5249390;28;20032;-85
2021/05/30 03:09:04;;;;;;;46.38;20.48;;;;;;;8.94;100.00;102714.75;5248114;28;20029;-85
2021/05/30 03:11:35;;;;;;;48.75;20.25;;;;;;;8.88;100.00;102711.66;5247857;28;20040;-85
2021/05/30 03:14:06;;;;;;;51.53;20.48;;;;;;;8.75;100.00;102709.84;5248389;28;20483;-85
2021/05/30 03:16:37;;;;;;;51.35;21.05;;;;;;;8.73;100.00;102710.91;5238525;28;20447;-85
2021/05/30 03:19:07;;;;;;;50.22;21.27;;;;;;;8.75;100.00;102715.22;5248313;28;20020;-85
2021/05/30 03:21:39;;;;;;;46.80;20.73;;;;;;;8.61;100.00;102718.00;5249129;28;20071;-85
2021/05/30 03:24:10;;;;;;;46.30;19.92;;;;;;;8.54;100.00;102717.59;5248356;28;20025;-85
2021/05/30 03:26:41;;;;;;;49.13;20.65;;;;;;;8.54;100.00;102720.25;5247877;28;20100;-85
2021/05/30 03:29:11;;;;;;;47.20;20.30;;;;;;;8.56;100.00;102728.16;5248111;28;20054;-85
2021/05/30 03:31:42;;;;;;;48.70;20.92;;;;;;;8.50;100.00;102725.94;5247964;28;20024;-85
2021/05/30 03:34:12;;;;;;;47.03;20.02;;;;;;;8.51;100.00;102733.84;5247978;28;20422;-85
2021/05/30 03:36:46;;;;;;;48.03;21.33;;;;;;;8.41;100.00;102740.78;5247847;28;20032;-85
2021/05/30 03:39:18;;;;;;;62.17;22.25;;;;;;;8.35;100.00;102741.19;5247893;28;20047;-85
2021/05/30 03:41:53;;;;;;;45.72;20.45;;;;;;;8.35;100.00;102735.84;5248227;28;20024;-85
2021/05/30 03:44:24;;;;;;;45.03;20.30;;;;;;;8.36;100.00;102729.56;5235270;28;20038;-85
2021/05/30 03:46:55;;;;;;;51.33;22.42;;;;;;;8.30;100.00;102737.97;5248323;28;20552;-85
2021/05/30 03:49:25;;;;;;;53.60;22.65;;;;;;;8.26;100.00;102737.31;5247050;28;20060;-85
2021/05/30 03:51:56;;;;;;;53.38;22.52;;;;;;;8.35;100.00;102740.34;5247989;28;20048;-85
2021/05/30 03:54:26;;;;;;;50.63;20.60;;;;;;;8.37;100.00;102739.28;5248280;28;20492;-85
2021/05/30 03:56:57;;;;;;;59.38;22.55;;;;;;;8.39;100.00;102742.72;5247046;28;20041;-85
2021/05/30 03:59:28;;;;;;;57.40;21.92;;;;;;;8.41;100.00;102735.44;5247661;28;20052;-85
2021/05/30 04:01:58;;;;;;;53.58;20.70;;;;;;;8.51;100.00;102736.50;5247546;28;20052;-85
2021/05/30 04:04:29;;;;;;;51.53;21.98;;;;;;;8.54;100.00;102736.31;5247989;28;20027;-85
2021/05/30 04:06:59;;;;;;;54.13;22.45;;;;;;;8.62;100.00;102740.25;5247932;28;20491;-85
2021/05/30 04:09:31;;;;;;;54.25;21.38;;;;;;;8.68;100.00;102739.81;5247460;28;20031;-85
2021/05/30 04:12:02;;;;;;;51.53;21.50;;;;;;;8.73;100.00;102741.19;5247457;28;20021;-85
2021/05/30 04:14:32;;;;;;;49.80;21.17;;;;;;;8.74;100.00;102737.59;5247224;28;20028;-85
2021/05/30 04:17:03;;;;;;;54.22;21.23;;;;;;;8.72;100.00;102749.34;5246781;28;20085;-85
2021/05/30 04:19:34;;;;;;;50.70;20.60;;;;;;;8.80;100.00;102750.53;5246772;28;20036;-85
2021/05/30 04:22:04;;;;;;;54.25;22.08;;;;;;;8.86;100.00;102743.88;5246882;28;20078;-85
2021/05/30 04:24:35;;;;;;;53.33;21.25;;;;;;;8.87;100.00;102734.88;5246536;28;20369;-85
2021/05/30 04:27:05;;;;;;;54.97;21.77;;;;;;;8.95;100.00;102735.22;5245497;28;20020;-85
2021/05/30 04:29:36;;;;;;;54.42;20.65;;;;;;;9.00;100.00;102737.56;5233204;28;20033;-85
2021/05/30 04:32:07;;;;;;;47.78;20.02;;;;;;;9.04;100.00;102731.03;5245446;28;20120;-85
2021/05/30 04:34:37;;;;;;;48.72;21.20;;;;;;;9.09;100.00;102739.56;5246574;28;20021;-85
2021/05/30 04:37:08;;;;;;;50.20;21.42;;;;;;;9.16;100.00;102738.16;5245238;28;20086;-85
2021/05/30 04:39:38;;;;;;;53.25;22.63;;;;;;;9.20;100.00;102734.28;5246335;28;20032;-85
2021/05/30 04:42:09;;;;;;;49.67;22.10;;;;;;;9.26;100.00;102727.63;5246215;28;20108;-85
2021/05/30 04:44:39;;;;;;;53.33;21.05;;;;;;;9.30;100.00;102735.34;5246644;28;20020;-85
2021/05/30 04:47:10;;;;;;;44.42;21.75;;;;;;;9.33;100.00;102732.41;5246465;28;20123;-85
2021/05/30 04:49:41;;;;;;;52.30;21.55;;;;;;;9.40;100.00;102729.31;5246166;28;20078;-85
2021/05/30 04:52:12;;;;;;;45.83;20.73;;;;;;;9.45;100.00;102738.72;5245209;28;20028;-85
2021/05/30 04:54:42;;;;;;;51.65;22.13;;;;;;;9.56;100.00;102732.56;5246144;28;20533;-85
2021/05/30 04:57:13;;;;;;;46.53;20.48;;;;;;;9.60;100.00;102742.09;5245496;28;20428;-85
2021/05/30 04:59:43;;;;;;;48.33;21.15;;;;;;;9.70;100.00;102737.75;5245626;28;20081;-83
2021/05/30 05:02:14;;;;;;;42.75;20.23;;;;;;;9.78;100.00;102737.16;5247083;28;20442;-84
2021/05/30 05:04:44;;;;;;;42.65;20.02;;;;;;;9.85;100.00;102746.47;5245543;28;20103;-85
2021/05/30 05:07:15;;;;;;;46.92;20.75;;;;;;;9.93;100.00;102749.41;5245495;28;20048;-85
2021/05/30 05:09:45;;;;;;;44.75;20.73;;;;;;;10.00;100.00;102747.13;5245486;28;20040;-85
2021/05/30 05:12:16;;;;;;;44.08;20.48;;;;;;;10.05;100.00;102744.97;5244461;28;20029;-85
2021/05/30 05:14:47;;;;;;;42.20;19.40;;;;;;;10.13;100.00;102746.06;5245406;28;20107;-85
2021/05/30 05:17:17;;;;;;;44.55;19.90;;;;;;;10.22;100.00;102744.53;5246318;28;20074;-83
2021/05/30 05:19:48;;;;;;;53.35;19.77;;;;;;;10.46;100.00;102747.16;5249715;28;20498;-86
2021/05/30 05:22:19;;;;;;;46.95;20.15;;;;;;;11.12;100.00;102750.84;5238610;28;20025;-84
2021/05/30 05:24:49;;;;;;;35.42;17.25;;;;;;;12.47;100.00;102736.94;5246312;28;20075;-85
2021/05/30 05:27:20;;;;;;;32.70;16.40;;;;;;;13.37;100.00;102741.59;5247109;28;20122;-85
2021/05/30 05:29:50;;;;;;;39.72;16.67;;;;;;;14.34;100.00;102738.91;5247635;28;20560;-85
2021/05/30 05:32:21;;;;;;;28.10;15.27;;;;;;;14.97;100.00;102737.31;5245898;28;20047;-85
2021/05/30 05:34:51;;;;;;;31.13;15.57;;;;;;;15.38;100.00;102745.91;5244768;28;20023;-85
2021/05/30 05:37:22;;;;;;;25.83;14.98;;;;;;;15.35;100.00;102748.91;5244760;28;20488;-85
2021/05/30 05:39:52;;;;;;;24.05;15.27;;;;;;;15.38;100.00;102750.47;5245016;28;20029;-85
2021/05/30 05:42:23;;;;;;;29.55;16.63;;;;;;;15.25;100.00;102761.63;5242164;28;20035;-85
2021/05/30 05:44:53;;;;;;;29.80;15.80;;;;;;;15.82;100.00;102745.22;5232144;28;20054;-85
2021/05/30 05:47:24;;;;;;;26.83;15.85;;;;;;;16.38;100.00;102757.53;5242716;28;20107;-86
2021/05/30 05:49:56;;;;;;;27.60;14.73;;;;;;;17.13;100.00;102741.56;5230811;28;20483;-86
2021/05/30 05:52:26;;;;;;;26.35;16.25;;;;;;;16.60;100.00;102751.56;5243970;28;20024;-85
2021/05/30 05:54:57;;;;;;;26.83;15.70;;;;;;;17.26;100.00;102750.06;5243455;28;20036;-85
2021/05/30 05:57:28;;;;;;;23.73;14.77;;;;;;;18.51;100.00;102752.56;5243822;28;20028;-86
2021/05/30 05:59:59;;;;;;;27.77;16.77;;;;;;;18.44;100.00;102753.47;5243520;28;20107;-85
2021/05/30 06:02:29;;;;;;;27.10;15.43;;;;;;;18.60;100.00;102756.13;5244113;28;20025;-86
2021/05/30 06:04:59;;;;;;;27.20;15.85;;;;;;;18.51;100.00;102751.72;5246799;28;20067;-85
2021/05/30 06:07:30;;;;;;;24.50;14.93;;;;;;;18.64;100.00;102754.78;5236610;28;20028;-86
2021/05/30 06:10:01;;;;;;;25.85;14.88;;;;;;;19.00;97.84;102754.34;5245375;28;20024;-86
2021/05/30 06:12:31;;;;;;;26.52;16.38;;;;;;;18.53;100.00;102749.72;5235175;28;20095;-85
2021/05/30 06:15:03;;;;;;;25.30;15.25;;;;;;;19.36;94.76;102743.81;5241081;28;20090;-86
2021/05/30 06:17:34;;;;;;;25.10;15.75;;;;;;;19.56;88.00;102750.50;5246721;28;20507;-85
2021/05/30 06:20:05;;;;;;;28.80;16.73;;;;;;;18.73;98.25;102747.50;5226759;28;20028;-85
2021/05/30 06:22:35;;;;;;;25.30;15.77;;;;;;;18.52;100.00;102756.97;5242411;28;20103;-85
2021/05/30 06:25:06;;;;;;;29.45;16.42;;;;;;;18.36;100.00;102748.88;5247111;28;20103;-85
2021/05/30 06:27:37;;;;;;;25.60;15.77;;;;;;;18.68;96.86;102750.72;5244503;28;20083;-85
2021/05/30 06:30:08;;;;;;;24.42;15.68;;;;;;;18.83;98.77;102753.56;5236632;28;20032;-85
2021/05/30 06:32:38;;;;;;;27.27;16.70;;;;;;;18.61;100.00;102752.38;5242793;28;20549;-84
2021/05/30 06:35:09;;;;;;;30.20;16.88;;;;;;;18.45;100.00;102747.84;5238059;28;20021;-85
2021/05/30 06:37:39;;;;;;;29.50;16.30;;;;;;;18.14;100.00;102750.41;5246171;28;20024;-86
2021/05/30 06:40:10;;;;;;;27.00;16.13;;;;;;;17.77;100.00;102754.47;5246748;28;20050;-85
2021/05/30 06:42:42;;;;;;;30.10;16.42;;;;;;;17.23;100.00;102755.84;5247230;28;20396;-84
2021/05/30 06:45:13;;;;;;;29.92;17.80;;;;;;;17.03;100.00;102749.81;5245693;28;20017;-84
2021/05/30 06:47:43;;;;;;;30.33;17.80;;;;;;;16.58;100.00;102757.16;5234965;28;20074;-85
2021/05/30 06:50:14;;;;;;;28.38;17.67;;;;;;;16.14;100.00;102752.75;5246577;28;20024;-85
2021/05/30 06:52:44;;;;;;;27.52;17.73;;;;;;;15.81;100.00;102757.88;5246895;28;20097;-85
2021/05/30 06:55:19;;;;;;;33.80;18.90;;;;;;;15.37;100.00;102746.91;5245017;28;20027;-86
2021/05/30 06:57:50;;;;;;;36.23;19.93;;;;;;;15.22;100.00;102759.25;5247152;28;20024;-85
2021/05/30 07:00:21;;;;;;;39.65;20.17;;;;;;;14.95;100.00;102746.56;5246773;28;20346;-85
2021/05/30 07:02:51;;;;;;;34.22;20.77;;;;;;;14.93;100.00;102751.25;5246846;28;20039;-86
2021/05/30 07:05:23;;;;;;;39.75;20.23;;;;;;;15.06;100.00;102750.91;5246259;28;20024;-85
2021/05/30 07:07:53;;;;;;;40.60;20.50;;;;;;;15.07;100.00;102750.78;5246553;28;20085;-87
2021/05/30 07:10:23;;;;;;;35.60;19.67;;;;;;;14.96;100.00;102754.53;5246587;28;20028;-85
2021/05/30 07:12:54;;;;;;;36.33;19.60;;;;;;;14.86;100.00;102755.53;5246373;28;20028;-85
2021/05/30 07:15:24;;;;;;;34.47;19.95;;;;;;;15.15;100.00;102744.59;5240984;28;20017;-85
2021/05/30 07:17:56;;;;;;;39.72;20.48;;;;;;;15.33;100.00;102745.50;5238537;28;20029;-85
2021/05/30 07:20:26;;;;;;;35.90;19.48;;;;;;;15.37;100.00;102755.03;5236259;28;20033;-85
2021/05/30 07:22:57;;;;;;;36.97;21.48;;;;;;;15.52;100.00;102758.91;5241490;28;20029;-85
2021/05/30 07:25:27;;;;;;;32.33;19.10;;;;;;;15.46;100.00;102753.25;5225422;28;20235;-86
2021/05/30 07:27:58;;;;;;;33.33;20.38;;;;;;;15.35;100.00;102748.91;5231487;28;20028;-85
2021/05/30 07:30:28;;;;;;;34.15;20.25;;;;;;;15.41;100.00;102745.63;5245530;28;20032;-85
2021/05/30 07:33:01;;;;;;;37.03;22.05;;;;;;;15.49;100.00;102750.25;5246394;28;20295;-85
2021/05/30 07:35:32;;;;;;;36.22;20.77;;;;;;;15.51;100.00;102750.94;5245827;28;20037;-85
2021/05/30 07:38:04;;;;;;;37.83;21.17;;;;;;;15.56;100.00;102751.31;5246410;28;20032;-85
2021/05/30 07:40:35;;;;;;;38.05;19.98;;;;;;;15.64;100.00;102746.03;5245926;28;20104;-86
2021/05/30 07:43:06;;;;;;;36.00;19.48;;;;;;;15.72;100.00;102750.72;5245801;28;20147;-85
2021/05/30 07:45:36;;;;;;;39.30;21.02;;;;;;;15.78;100.00;102748.22;5244526;28;20207;-86
2021/05/30 07:48:07;;;;;;;34.05;21.02;;;;;;;16.07;100.00;102747.13;5246269;28;20052;-85
2021/05/30 07:50:38;;;;;;;34.67;20.10;;;;;;;16.22;100.00;102753.69;5246317;28;20186;-85
2021/05/30 07:53:08;;;;;;;35.22;21.33;;;;;;;16.25;100.00;102755.22;5245508;28;20126;-86
2021/05/30 07:55:40;;;;;;;38.90;20.73;;;;;;;16.28;100.00;102749.50;5245907;28;20108;-85
2021/05/30 07:58:10;;;;;;;36.88;20.50;;;;;;;16.28;100.00;102750.34;5246642;28;20028;-85
2021/05/30 08:00:41;;;;;;;34.47;20.35;;;;;;;16.63;100.00;102745.00;5244532;28;20032;-85
2021/05/30 08:03:11;;;;;;;33.88;19.33;;;;;;;16.69;100.00;102747.06;5246184;28;20108;-85
2021/05/30 08:05:42;;;;;;;35.95;20.27;;;;;;;16.73;100.00;102743.91;5245813;28;20097;-85
2021/05/30 08:08:13;;;;;;;32.33;20.48;;;;;;;16.93;100.00;102738.25;5247223;28;20020;-84
2021/05/30 08:10:44;;;;;;;35.25;19.58;;;;;;;17.02;100.00;102742.69;5248270;28;20032;-84
2021/05/30 08:13:15;;;;;;;29.05;17.67;;;;;;;17.07;100.00;102738.47;5248230;28;20291;-84
2021/05/30 08:15:45;;;;;;;33.45;19.83;;;;;;;17.07;100.00;102741.19;5249952;28;20027;-85
2021/05/30 08:18:16;;;;;;;34.03;19.23;;;;;;;17.16;100.00;102744.78;5248738;28;20388;-84
2021/05/30 08:20:46;;;;;;;36.55;20.02;;;;;;;17.28;100.00;102738.03;5248172;28;20063;-84
2021/05/30 08:23:17;;;;;;;31.83;18.42;;;;;;;17.38;100.00;102737.91;5248939;28;20021;-84
2021/05/30 08:25:47;;;;;;;27.92;17.38;;;;;;;17.46;100.00;102737.91;5249807;28;20025;-84
2021/05/30 08:28:18;;;;;;;29.20;18.23;;;;;;;17.76;100.00;102736.47;5249693;28;20112;-84
2021/05/30 08:30:48;;;;;;;34.42;19.30;;;;;;;17.90;100.00;102737.69;5248282;28;20028;-85
2021/05/30 08:33:19;;;;;;;29.85;17.70;;;;;;;18.24;100.00;102734.78;5249138;28;20430;-84
2021/05/30 08:35:49;;;;;;;29.58;17.35;;;;;;;18.25;100.00;102733.75;5249438;28;20024;-84
2021/05/30 08:38:21;;;;;;;29.33;16.90;;;;;;;18.18;100.00;102738.19;5250691;28;20387;-84
2021/05/30 08:40:52;;;;;;;27.42;17.83;;;;;;;18.07;100.00;102733.09;5250198;28;20048;-86
2021/05/30 08:43:22;;;;;;;29.55;18.30;;;;;;;18.33;100.00;102724.78;5246589;28;20066;-85
2021/05/30 08:45:53;;;;;;;29.33;18.40;;;;;;;18.36;100.00;102727.97;5245579;28;20032;-84
2021/05/30 08:48:25;;;;;;;27.33;16.13;;;;;;;18.37;100.00;102726.97;5245865;28;20020;-84
2021/05/30 08:51:04;;;;;;;31.77;17.70;;;;;;;18.61;98.02;102717.06;5242037;28;20055;-84
2021/05/30 08:53:37;;;;;;;26.52;15.70;;;;;;;18.81;100.00;102717.53;5245730;28;20415;-85
2021/05/30 08:56:09;;;;;;;25.83;16.08;;;;;;;18.74;100.00;102722.84;5245286;28;20312;-86
2021/05/30 08:58:42;;;;;;;25.45;14.98;;;;;;;18.83;96.14;102718.22;5245404;28;20024;-84
2021/05/30 09:01:15;;;;;;;26.60;16.88;;;;;;;18.83;98.87;102710.91;5239447;28;20025;-85
2021/05/30 09:04:05;;;;;;;24.42;15.50;;;;;;;19.12;94.67;102712.97;5245301;28;20052;-84
2021/05/30 09:06:39;;;;;;;25.83;15.50;;;;;;;19.17;87.40;102715.16;5240920;28;20032;-84
2021/05/30 09:09:11;;;;;;;24.70;14.25;;;;;;;19.32;99.05;102707.94;5243201;28;20074;-85
2021/05/30 09:11:50;;;;;;;26.60;15.05;;;;;;;19.42;95.50;102711.28;5241171;28;20025;-84
2021/05/30 09:14:24;;;;;;;27.17;15.63;;;;;;;19.64;77.66;102706.09;5243185;28;20032;-84
2021/05/30 09:16:58;;;;;;;23.33;14.85;;;;;;;19.38;89.71;102707.25;5242932;28;20907;-83
2021/05/30 09:19:36;;;;;;;30.00;14.73;;;;;;;19.26;87.37;102696.94;5246845;28;20518;-84
2021/05/30 09:22:24;;;;;;;25.08;15.15;;;;;;;19.20;83.64;102703.94;5240792;28;20028;-83
2021/05/30 09:25:06;;;;;;;22.52;12.18;;;;;;;19.27;79.97;102701.34;5231429;28;20056;-83
2021/05/30 09:27:42;;;;;;;19.45;11.23;;;;;;;19.19;73.98;102704.97;5238127;28;20522;-85
2021/05/30 09:30:13;;;;;;;19.70;11.55;;;;;;;19.26;75.03;102705.94;5238409;28;20024;-84
2021/05/30 09:33:01;;;;;;;21.27;12.52;;;;;;;19.39;81.33;102698.03;5244962;28;20114;-83
2021/05/30 09:35:38;;;;;;;20.48;12.10;;;;;;;19.53;75.13;102696.44;5250300;28;20033;-83
2021/05/30 09:38:12;;;;;;;18.42;10.52;;;;;;;19.80;75.61;102699.66;5236620;28;20048;-83
2021/05/30 09:40:52;;;;;;;19.83;10.75;;;;;;;19.92;73.55;102693.56;5245525;28;20388;-83
2021/05/30 09:43:26;;;;;;;20.02;12.48;;;;;;;19.92;69.28;102701.75;5248926;28;20514;-84
2021/05/30 09:46:01;;;;;;;17.05;10.60;;;;;;;19.86;73.77;102694.31;5247958;28;20028;-84
2021/05/30 09:48:33;;;;;;;19.77;12.07;;;;;;;20.04;76.07;102701.34;5248038;28;20055;-84
2021/05/30 09:51:25;;;;;;;16.40;9.60;;;;;;;20.16;64.69;102692.50;5245261;28;20056;-84
2021/05/30 09:54:00;;;;;;;19.52;10.43;;;;;;;20.26;65.32;102689.53;5242618;28;20043;-83
2021/05/30 09:56:36;;;;;;;20.80;11.18;;;;;;;20.11;66.50;102692.22;5247858;28;20024;-84
2021/05/30 09:59:10;;;;;;;16.02;10.40;;;;;;;19.86;63.19;102691.59;5247751;28;20067;-83
2021/05/30 10:01:46;;;;;;;20.13;10.48;;;;;;;19.79;68.92;102674.31;5247795;28;20108;-84
2021/05/30 10:04:18;;;;;;;16.75;9.10;;;;;;;19.87;71.65;102689.72;5250328;28;20449;-85
2021/05/30 10:06:49;;;;;;;14.45;9.02;;;;;;;20.03;65.58;102686.00;5249960;28;20036;-83
2021/05/30 10:09:19;;;;;;;14.60;9.68;;;;;;;20.25;66.69;102684.28;5250956;28;20032;-84
2021/05/30 10:11:50;;;;;;;15.73;9.93;;;;;;;20.44;62.32;102679.13;5250864;28;20073;-84
2021/05/30 10:14:20;;;;;;;14.38;9.70;;;;;;;20.58;63.92;102679.31;5254274;28;20503;-84
2021/05/30 10:16:51;;;;;;;16.67;9.70;;;;;;;20.82;67.34;102678.19;5266041;28;20384;-84
2021/05/30 10:19:21;;;;;;;14.30;9.40;;;;;;;20.79;64.55;102671.25;5250076;28;20035;-84
2021/05/30 10:21:54;;;;;;;15.93;9.60;;;;;;;21.10;64.80;102664.69;5250460;28;20104;-84
2021/05/30 10:24:25;;;;;;;16.88;9.93;;;;;;;21.02;60.91;102668.38;5250717;28;20024;-83
2021/05/30 10:27:12;;;;;;;14.35;8.82;;;;;;;21.04;60.13;102666.31;5249508;28;20549;-84
2021/05/30 10:30:11;;;;;;;15.30;9.85;;;;;;;21.08;57.66;102662.13;5238162;28;20024;-83
2021/05/30 10:32:44;;;;;;;11.77;8.60;;;;;;;21.15;59.23;102662.22;5250253;28;20146;-84
2021/05/30 10:35:22;;;;;;;14.73;8.68;;;;;;;21.34;58.23;102658.91;5266420;28;20029;-83
2021/05/30 10:37:56;;;;;;;10.88;6.00;;;;;;;21.19;56.86;102656.19;5249876;28;20025;-84
2021/05/30 10:40:30;;;;;;;10.27;5.47;;;;;;;21.26;53.70;102652.69;5249713;28;20028;-83
2021/05/30 10:43:07;;;;;;;9.68;4.90;;;;;;;21.38;52.77;102660.19;5250903;28;20051;-84
2021/05/30 10:45:42;;;;;;;8.73;4.97;;;;;;;21.60;52.13;102654.75;5250214;28;20031;-84
2021/05/30 10:48:14;;;;;;;9.03;5.67;;;;;;;21.76;47.30;102654.47;5247630;28;20047;-84
2021/05/30 10:51:00;;;;;;;7.10;4.97;;;;;;;21.71;50.67;102646.03;5247960;28;20125;-83
2021/05/30 10:53:43;;;;;;;7.07;4.65;;;;;;;21.76;48.20;102643.53;5249589;28;20502;-83
2021/05/30 10:56:14;;;;;;;5.03;3.92;;;;;;;21.80;48.94;102644.84;5249803;28;20031;-83
2021/05/30 10:59:06;;;;;;;6.38;4.03;;;;;;;21.97;46.46;102635.31;5249416;28;20484;-84
2021/05/30 11:01:39;;;;;;;8.27;3.92;;;;;;;22.16;45.96;102641.16;5248986;28;20036;-83
2021/05/30 11:06:59;;;;;;;12.60;4.47;;;;;;;22.42;45.48;102629.53;5237851;28;20062;-84
2021/05/30 11:09:48;;;;;;;7.38;4.03;;;;;;;22.28;42.43;102620.41;5248367;28;20020;-83
2021/05/30 11:12:26;;;;;;;5.30;3.85;;;;;;;22.28;46.92;102609.47;5249449;28;20041;-83
2021/05/30 11:15:08;;;;;;;5.47;3.90;;;;;;;22.05;44.95;102614.34;5237627;28;20501;-83
2021/05/30 11:17:41;;;;;;;8.32;4.57;;;;;;;21.96;42.27;102619.13;5249603;28;20146;-84
2021/05/30 11:20:15;;;;;;;5.28;3.55;;;;;;;21.98;47.88;102612.41;5251276;28;20032;-83
2021/05/30 11:22:50;;;;;;;4.53;3.55;;;;;;;22.07;45.81;102615.81;5250653;28;20035;-83
2021/05/30 11:25:32;;;;;;;5.75;3.70;;;;;;;22.29;45.73;102616.66;5250024;28;20043;-83
2021/05/30 11:28:05;;;;;;;12.38;3.38;;;;;;;22.56;44.32;102605.84;5249372;28;20032;-83
2021/05/30 11:30:50;;;;;;;6.63;3.80;;;;;;;22.74;45.81;102600.63;5249218;28;20139;-83
2021/05/30 11:33:21;;;;;;;7.68;3.58;;;;;;;22.93;42.29;102599.06;5250769;28;20472;-83
2021/05/30 11:35:54;;;;;;;4.85;3.58;;;;;;;23.09;46.84;102604.13;5237269;28;20028;-84